createdAt,value
2016-09-02T00:00:29.438Z,0
2016-09-02T00:01:03.731Z,0
2016-09-02T00:01:38.030Z,0
2016-09-02T00:02:12.354Z,0
2016-09-02T00:02:46.651Z,0
2016-09-02T00:03:20.933Z,0
2016-09-02T00:03:55.231Z,0
2016-09-02T00:04:29.525Z,0
2016-09-02T00:05:03.845Z,0
2016-09-02T00:05:38.142Z,0
2016-09-02T00:06:12.442Z,0
2016-09-02T00:06:46.736Z,0
2016-09-02T00:07:21.045Z,0
2016-09-02T00:07:55.323Z,0
2016-09-02T00:08:29.623Z,0
2016-09-02T00:09:03.947Z,0
2016-09-02T00:09:38.232Z,0
2016-09-02T00:10:12.616Z,0
2016-09-02T00:10:46.896Z,0
2016-09-02T00:11:21.186Z,0
2016-09-02T00:11:55.497Z,0
2016-09-02T00:12:29.783Z,0
2016-09-02T00:13:04.067Z,0
2016-09-02T00:13:38.355Z,0
2016-09-02T00:14:12.671Z,0
2016-09-02T00:14:46.964Z,0
2016-09-02T00:15:21.504Z,0
2016-09-02T00:15:55.816Z,0
2016-09-02T00:16:30.097Z,0
2016-09-02T00:17:04.382Z,0
2016-09-02T00:17:38.672Z,0
2016-09-02T00:18:12.972Z,0
2016-09-02T00:18:47.258Z,0
2016-09-02T00:19:21.555Z,0
2016-09-02T00:19:55.851Z,0
2016-09-02T00:20:30.167Z,0
2016-09-02T00:21:04.453Z,0
2016-09-02T00:21:38.740Z,0
2016-09-02T00:22:13.046Z,0
2016-09-02T00:22:47.345Z,0
2016-09-02T00:23:21.651Z,0
2016-09-02T00:23:55.940Z,0
2016-09-02T00:24:30.244Z,0
2016-09-02T00:25:04.548Z,0
2016-09-02T00:25:38.829Z,0
2016-09-02T00:26:13.123Z,0
2016-09-02T00:26:47.412Z,0
2016-09-02T00:27:21.720Z,0
2016-09-02T00:27:56.009Z,0
2016-09-02T00:28:30.300Z,0
2016-09-02T00:29:04.597Z,0
2016-09-02T00:29:38.900Z,0
2016-09-02T00:30:13.713Z,0
2016-09-02T00:30:48.005Z,0
2016-09-02T00:31:22.297Z,0
2016-09-02T00:31:56.599Z,0
2016-09-02T00:32:30.906Z,0
2016-09-02T00:33:05.191Z,0
2016-09-02T00:33:39.492Z,0
2016-09-02T00:34:13.792Z,0
2016-09-02T00:34:48.070Z,0
2016-09-02T00:35:22.359Z,0
2016-09-02T00:35:56.673Z,0
2016-09-02T00:36:30.991Z,0
2016-09-02T00:37:05.310Z,0
2016-09-02T00:37:39.624Z,0
2016-09-02T00:38:13.927Z,0
2016-09-02T00:38:48.227Z,0
2016-09-02T00:39:22.520Z,0
2016-09-02T00:39:56.813Z,0
2016-09-02T00:40:31.109Z,0
2016-09-02T00:41:05.440Z,0
2016-09-02T00:41:39.725Z,0
2016-09-02T00:42:14.007Z,0
2016-09-02T00:42:48.291Z,0
2016-09-02T00:43:22.582Z,0
2016-09-02T00:43:56.877Z,0
2016-09-02T00:44:31.182Z,0
2016-09-02T00:45:05.936Z,0
2016-09-02T00:45:40.223Z,0
2016-09-02T00:46:14.513Z,0
2016-09-02T00:46:48.800Z,0
2016-09-02T00:47:23.097Z,0
2016-09-02T00:47:57.388Z,0
2016-09-02T00:48:31.680Z,0
2016-09-02T00:49:05.987Z,0
2016-09-02T00:49:40.271Z,0
2016-09-02T00:50:14.563Z,0
2016-09-02T00:50:48.858Z,0
2016-09-02T00:51:23.150Z,0
2016-09-02T00:51:57.455Z,0
2016-09-02T00:52:31.768Z,0
2016-09-02T00:53:06.070Z,0
2016-09-02T00:53:40.368Z,0
2016-09-02T00:54:14.681Z,0
2016-09-02T00:54:48.992Z,0
2016-09-02T00:55:23.454Z,0
2016-09-02T00:55:57.745Z,0
2016-09-02T00:56:32.032Z,0
2016-09-02T00:57:06.327Z,0
2016-09-02T00:57:40.634Z,0
2016-09-02T00:58:14.945Z,0
2016-09-02T00:58:49.218Z,0
2016-09-02T00:59:23.510Z,0
2016-09-02T00:59:57.815Z,0
2016-09-02T01:00:32.116Z,0
2016-09-02T01:01:06.465Z,0
2016-09-02T01:01:40.766Z,0
2016-09-02T01:02:15.070Z,0
2016-09-02T01:02:49.359Z,0
2016-09-02T01:03:23.644Z,0
2016-09-02T01:03:57.939Z,0
2016-09-02T01:04:32.219Z,0
2016-09-02T01:05:06.514Z,0
2016-09-02T01:05:40.806Z,0
2016-09-02T01:06:15.099Z,0
2016-09-02T01:06:49.400Z,0
2016-09-02T01:07:23.699Z,0
2016-09-02T01:07:58.013Z,0
2016-09-02T01:08:32.337Z,0
2016-09-02T01:09:06.646Z,0
2016-09-02T01:09:40.945Z,0
2016-09-02T01:10:15.235Z,0
2016-09-02T01:10:49.533Z,0
2016-09-02T01:11:23.833Z,0
2016-09-02T01:11:58.120Z,0
2016-09-02T01:12:32.423Z,0
2016-09-02T01:13:06.721Z,0
2016-09-02T01:13:41.014Z,0
2016-09-02T01:14:15.317Z,0
2016-09-02T01:14:49.628Z,0
2016-09-02T01:15:23.939Z,0
2016-09-02T01:15:58.256Z,0
2016-09-02T01:16:32.578Z,0
2016-09-02T01:17:06.879Z,0
2016-09-02T01:17:41.180Z,0
2016-09-02T01:18:15.477Z,0
2016-09-02T01:18:49.795Z,0
2016-09-02T01:19:24.073Z,0
2016-09-02T01:19:58.367Z,0
2016-09-02T01:20:32.667Z,0
2016-09-02T01:21:06.961Z,0
2016-09-02T01:21:41.267Z,0
2016-09-02T01:22:15.566Z,0
2016-09-02T01:22:49.871Z,0
2016-09-02T01:23:24.167Z,0
2016-09-02T01:23:58.472Z,0
2016-09-02T01:24:32.759Z,0
2016-09-02T01:25:07.056Z,0
2016-09-02T01:25:41.351Z,0
2016-09-02T01:26:15.658Z,0
2016-09-02T01:26:49.950Z,0
2016-09-02T01:27:24.232Z,0
2016-09-02T01:27:58.537Z,0
2016-09-02T01:28:32.830Z,0
2016-09-02T01:29:07.161Z,0
2016-09-02T01:29:41.469Z,0
2016-09-02T01:30:15.781Z,0
2016-09-02T01:30:50.089Z,0
2016-09-02T01:31:24.383Z,0
2016-09-02T01:31:58.684Z,0
2016-09-02T01:32:32.974Z,0
2016-09-02T01:33:07.282Z,0
2016-09-02T01:33:41.587Z,0
2016-09-02T01:34:15.886Z,0
2016-09-02T01:34:50.168Z,0
2016-09-02T01:35:24.473Z,0
2016-09-02T01:35:58.779Z,0
2016-09-02T01:36:33.085Z,0
2016-09-02T01:37:07.387Z,0
2016-09-02T01:37:41.683Z,0
2016-09-02T01:38:15.977Z,0
2016-09-02T01:38:50.262Z,0
2016-09-02T01:39:24.547Z,0
2016-09-02T01:39:58.837Z,0
2016-09-02T01:40:33.132Z,0
2016-09-02T01:41:07.417Z,0
2016-09-02T01:41:41.715Z,0
2016-09-02T01:42:16.016Z,0
2016-09-02T01:42:50.341Z,0
2016-09-02T01:43:24.645Z,0
2016-09-02T01:43:58.947Z,0
2016-09-02T01:44:33.251Z,0
2016-09-02T01:45:07.872Z,0
2016-09-02T01:45:42.189Z,0
2016-09-02T01:46:16.495Z,0
2016-09-02T01:46:50.800Z,0
2016-09-02T01:47:25.082Z,0
2016-09-02T01:47:59.378Z,0
2016-09-02T01:48:33.682Z,0
2016-09-02T01:49:07.968Z,0
2016-09-02T01:49:42.284Z,0
2016-09-02T01:50:16.592Z,0
2016-09-02T01:50:50.874Z,0
2016-09-02T01:51:25.172Z,0
2016-09-02T01:51:59.470Z,0
2016-09-02T01:52:33.756Z,0
2016-09-02T01:53:08.049Z,0
2016-09-02T01:53:42.342Z,0
2016-09-02T01:54:16.632Z,0
2016-09-02T01:54:50.929Z,0
2016-09-02T01:55:25.608Z,0
2016-09-02T01:55:59.897Z,0
2016-09-02T01:56:34.184Z,0
2016-09-02T01:57:08.489Z,0
2016-09-02T01:57:42.767Z,0
2016-09-02T01:58:17.060Z,0
2016-09-02T01:58:51.363Z,0
2016-09-02T01:59:25.663Z,0
2016-09-02T01:59:59.969Z,0
2016-09-02T02:00:34.263Z,0
2016-09-02T02:01:08.545Z,0
2016-09-02T02:01:42.837Z,0
2016-09-02T02:02:17.122Z,0
2016-09-02T02:02:51.418Z,0
2016-09-02T02:03:25.709Z,0
2016-09-02T02:04:00.041Z,0
2016-09-02T02:04:34.335Z,0
2016-09-02T02:05:08.812Z,0
2016-09-02T02:05:43.122Z,0
2016-09-02T02:06:17.427Z,0
2016-09-02T02:06:51.736Z,0
2016-09-02T02:07:26.035Z,0
2016-09-02T02:08:00.346Z,0
2016-09-02T02:08:34.645Z,0
2016-09-02T02:09:08.932Z,0
2016-09-02T02:09:43.245Z,0
2016-09-02T02:10:17.631Z,0
2016-09-02T02:10:51.945Z,0
2016-09-02T02:11:26.241Z,0
2016-09-02T02:12:00.535Z,0
2016-09-02T02:12:36.764Z,0
2016-09-02T02:13:11.048Z,0
2016-09-02T02:13:45.341Z,0
2016-09-02T02:14:19.649Z,0
2016-09-02T02:14:53.949Z,0
2016-09-02T02:15:28.236Z,0
2016-09-02T02:16:02.527Z,0
2016-09-02T02:16:36.828Z,0
2016-09-02T02:17:11.162Z,0
2016-09-02T02:17:45.446Z,0
2016-09-02T02:18:19.748Z,0
2016-09-02T02:18:54.043Z,0
2016-09-02T02:19:28.347Z,0
2016-09-02T02:20:02.644Z,0
2016-09-02T02:20:36.927Z,0
2016-09-02T02:21:11.286Z,0
2016-09-02T02:21:45.594Z,0
2016-09-02T02:22:19.896Z,0
2016-09-02T02:22:54.181Z,0
2016-09-02T02:23:28.495Z,0
2016-09-02T02:24:02.809Z,0
2016-09-02T02:24:37.104Z,0
2016-09-02T02:25:11.403Z,0
2016-09-02T02:25:45.689Z,0
2016-09-02T02:26:19.980Z,0
2016-09-02T02:26:54.285Z,0
2016-09-02T02:27:28.573Z,0
2016-09-02T02:28:02.882Z,0
2016-09-02T02:28:37.187Z,0
2016-09-02T02:29:11.487Z,0
2016-09-02T02:29:45.860Z,0
2016-09-02T02:30:20.158Z,0
2016-09-02T02:30:54.451Z,0
2016-09-02T02:31:28.768Z,0
2016-09-02T02:32:03.067Z,0
2016-09-02T02:32:37.383Z,0
2016-09-02T02:33:11.654Z,0
2016-09-02T02:33:45.945Z,0
2016-09-02T02:34:20.238Z,0
2016-09-02T02:34:54.552Z,0
2016-09-02T02:35:29.107Z,0
2016-09-02T02:36:03.406Z,0
2016-09-02T02:36:37.685Z,0
2016-09-02T02:37:11.996Z,0
2016-09-02T02:37:46.297Z,0
2016-09-02T02:38:20.578Z,0
2016-09-02T02:38:54.853Z,0
2016-09-02T02:39:29.130Z,0
2016-09-02T02:40:03.435Z,0
2016-09-02T02:40:37.730Z,0
2016-09-02T02:41:12.025Z,0
2016-09-02T02:41:46.312Z,0
2016-09-02T02:42:20.607Z,0
2016-09-02T02:42:54.908Z,0
2016-09-02T02:43:29.226Z,0
2016-09-02T02:44:03.523Z,0
2016-09-02T02:44:37.826Z,0
2016-09-02T02:45:12.132Z,0
2016-09-02T02:45:46.429Z,0
2016-09-02T02:46:20.693Z,0
2016-09-02T02:46:55.038Z,0
2016-09-02T02:47:29.332Z,0
2016-09-02T02:48:03.639Z,0
2016-09-02T02:48:37.938Z,0
2016-09-02T02:49:12.223Z,0
2016-09-02T02:49:46.512Z,0
2016-09-02T02:50:20.808Z,0
2016-09-02T02:50:55.091Z,0
2016-09-02T02:51:29.391Z,0
2016-09-02T02:52:03.682Z,0
2016-09-02T02:52:37.964Z,0
2016-09-02T02:53:12.254Z,0
2016-09-02T02:53:46.547Z,0
2016-09-02T02:54:20.854Z,0
2016-09-02T02:54:55.168Z,0
2016-09-02T02:55:29.451Z,0
2016-09-02T02:56:03.730Z,0
2016-09-02T02:56:38.041Z,0
2016-09-02T02:57:12.325Z,0
2016-09-02T02:57:46.617Z,0
2016-09-02T02:58:20.916Z,0
2016-09-02T02:58:55.218Z,0
2016-09-02T02:59:29.509Z,0
2016-09-02T03:00:03.988Z,0
2016-09-02T03:00:38.280Z,0
2016-09-02T03:01:12.590Z,0
2016-09-02T03:01:46.878Z,0
2016-09-02T03:02:21.169Z,0
2016-09-02T03:02:55.459Z,0
2016-09-02T03:03:29.756Z,0
2016-09-02T03:04:04.051Z,0
2016-09-02T03:04:38.343Z,0
2016-09-02T03:05:12.652Z,0
2016-09-02T03:05:46.970Z,0
2016-09-02T03:06:21.262Z,0
2016-09-02T03:06:55.566Z,0
2016-09-02T03:07:29.840Z,0
2016-09-02T03:08:04.143Z,0
2016-09-02T03:08:38.455Z,0
2016-09-02T03:09:12.743Z,0
2016-09-02T03:09:47.034Z,0
2016-09-02T03:10:21.376Z,0
2016-09-02T03:10:55.671Z,0
2016-09-02T03:11:29.964Z,0
2016-09-02T03:12:04.246Z,0
2016-09-02T03:12:38.540Z,0
2016-09-02T03:13:12.857Z,0
2016-09-02T03:13:47.207Z,0
2016-09-02T03:14:21.504Z,0
2016-09-02T03:14:55.809Z,0
2016-09-02T03:15:30.096Z,0
2016-09-02T03:16:04.381Z,0
2016-09-02T03:16:38.676Z,0
2016-09-02T03:17:12.966Z,0
2016-09-02T03:17:47.250Z,0
2016-09-02T03:18:21.555Z,0
2016-09-02T03:18:55.877Z,0
2016-09-02T03:19:30.187Z,0
2016-09-02T03:20:04.485Z,0
2016-09-02T03:20:38.784Z,0
2016-09-02T03:21:13.089Z,0
2016-09-02T03:21:47.371Z,0
2016-09-02T03:22:21.664Z,0
2016-09-02T03:22:55.973Z,0
2016-09-02T03:23:30.271Z,0
2016-09-02T03:24:04.579Z,0
2016-09-02T03:24:38.884Z,0
2016-09-02T03:25:13.451Z,0
2016-09-02T03:25:47.749Z,0
2016-09-02T03:26:22.056Z,0
2016-09-02T03:26:56.350Z,0
2016-09-02T03:27:30.677Z,0
2016-09-02T03:28:04.993Z,0
2016-09-02T03:28:39.297Z,0
2016-09-02T03:29:13.603Z,0
2016-09-02T03:29:47.909Z,0
2016-09-02T03:30:22.202Z,0
2016-09-02T03:30:56.506Z,0
2016-09-02T03:31:30.818Z,0
2016-09-02T03:32:05.114Z,0
2016-09-02T03:32:39.419Z,0
2016-09-02T03:33:13.727Z,0
2016-09-02T03:33:48.016Z,0
2016-09-02T03:34:22.314Z,0
2016-09-02T03:34:56.607Z,0
2016-09-02T03:35:30.913Z,0
2016-09-02T03:36:05.203Z,0
2016-09-02T03:36:39.487Z,0
2016-09-02T03:37:13.776Z,0
2016-09-02T03:37:48.080Z,0
2016-09-02T03:38:22.354Z,0
2016-09-02T03:38:56.662Z,0
2016-09-02T03:39:30.970Z,0
2016-09-02T03:40:05.273Z,0
2016-09-02T03:40:39.583Z,0
2016-09-02T03:41:13.873Z,0
2016-09-02T03:41:48.161Z,0
2016-09-02T03:42:22.449Z,0
2016-09-02T03:42:56.759Z,0
2016-09-02T03:43:31.049Z,0
2016-09-02T03:44:05.346Z,0
2016-09-02T03:44:39.642Z,0
2016-09-02T03:45:13.940Z,0
2016-09-02T03:45:48.216Z,0
2016-09-02T03:46:22.496Z,0
2016-09-02T03:46:56.806Z,0
2016-09-02T03:47:31.109Z,0
2016-09-02T03:48:05.399Z,0
2016-09-02T03:48:39.731Z,0
2016-09-02T03:49:14.053Z,0
2016-09-02T03:49:48.351Z,0
2016-09-02T03:50:22.699Z,0
2016-09-02T03:50:57.026Z,0
2016-09-02T03:51:31.341Z,0
2016-09-02T03:52:05.633Z,0
2016-09-02T03:52:39.926Z,0
2016-09-02T03:53:14.226Z,0
2016-09-02T03:53:48.526Z,0
2016-09-02T03:54:22.837Z,0
2016-09-02T03:54:57.129Z,0
2016-09-02T03:55:31.435Z,0
2016-09-02T03:56:05.743Z,0
2016-09-02T03:56:40.044Z,0
2016-09-02T03:57:14.352Z,0
2016-09-02T03:57:48.665Z,0
2016-09-02T03:58:22.968Z,0
2016-09-02T03:58:57.269Z,0
2016-09-02T03:59:31.571Z,0
2016-09-02T04:00:05.875Z,0
2016-09-02T04:00:40.176Z,0
2016-09-02T04:01:14.487Z,0
2016-09-02T04:01:48.793Z,0
2016-09-02T04:02:23.077Z,0
2016-09-02T04:02:57.389Z,0
2016-09-02T04:03:31.686Z,0
2016-09-02T04:04:07.170Z,0
2016-09-02T04:04:41.468Z,0
2016-09-02T04:05:15.755Z,0
2016-09-02T04:05:50.069Z,0
2016-09-02T04:06:24.351Z,0
2016-09-02T04:06:58.650Z,0
2016-09-02T04:07:32.962Z,0
2016-09-02T04:08:07.253Z,0
2016-09-02T04:08:41.570Z,0
2016-09-02T04:09:15.874Z,0
2016-09-02T04:09:50.176Z,0
2016-09-02T04:10:24.475Z,0
2016-09-02T04:10:58.776Z,0
2016-09-02T04:11:33.072Z,0
2016-09-02T04:12:07.373Z,0
2016-09-02T04:12:41.670Z,0
2016-09-02T04:13:15.945Z,0
2016-09-02T04:13:50.243Z,0
2016-09-02T04:14:24.517Z,0
2016-09-02T04:14:58.824Z,0
2016-09-02T04:15:33.129Z,0
2016-09-02T04:16:07.439Z,0
2016-09-02T04:16:41.764Z,0
2016-09-02T04:17:16.067Z,0
2016-09-02T04:17:50.347Z,0
2016-09-02T04:18:24.645Z,0
2016-09-02T04:18:58.932Z,0
2016-09-02T04:19:33.238Z,0
2016-09-02T04:20:08.105Z,0
2016-09-02T04:20:42.405Z,0
2016-09-02T04:21:16.702Z,0
2016-09-02T04:21:50.995Z,0
2016-09-02T04:22:25.292Z,0
2016-09-02T04:22:59.612Z,0
2016-09-02T04:23:33.914Z,0
2016-09-02T04:24:08.223Z,0
2016-09-02T04:24:42.543Z,0
2016-09-02T04:25:16.849Z,0
2016-09-02T04:25:51.150Z,0
2016-09-02T04:26:25.440Z,0
2016-09-02T04:26:59.729Z,0
2016-09-02T04:27:34.022Z,0
2016-09-02T04:28:08.323Z,0
2016-09-02T04:28:42.630Z,0
2016-09-02T04:29:16.952Z,0
2016-09-02T04:29:51.264Z,0
2016-09-02T04:30:25.556Z,0
2016-09-02T04:30:59.858Z,0
2016-09-02T04:31:34.156Z,0
2016-09-02T04:32:08.449Z,0
2016-09-02T04:32:42.765Z,0
2016-09-02T04:33:17.075Z,0
2016-09-02T04:33:51.391Z,0
2016-09-02T04:34:25.684Z,0
2016-09-02T04:34:59.974Z,0
2016-09-02T04:35:34.247Z,0
2016-09-02T04:36:08.550Z,0
2016-09-02T04:36:42.844Z,0
2016-09-02T04:37:17.150Z,0
2016-09-02T04:37:51.449Z,0
2016-09-02T04:38:25.748Z,0
2016-09-02T04:39:00.044Z,0
2016-09-02T04:39:34.336Z,0
2016-09-02T04:40:08.634Z,0
2016-09-02T04:40:42.955Z,0
2016-09-02T04:41:17.246Z,0
2016-09-02T04:41:51.538Z,0
2016-09-02T04:42:25.831Z,0
2016-09-02T04:43:00.122Z,0
2016-09-02T04:43:34.415Z,0
2016-09-02T04:44:08.706Z,0
2016-09-02T04:44:43.008Z,0
2016-09-02T04:45:17.383Z,0
2016-09-02T04:45:51.676Z,0
2016-09-02T04:46:25.993Z,0
2016-09-02T04:47:00.278Z,0
2016-09-02T04:47:34.579Z,0
2016-09-02T04:48:08.867Z,0
2016-09-02T04:48:43.157Z,5
2016-09-02T04:49:17.465Z,5
2016-09-02T04:49:51.777Z,5
2016-09-02T04:50:26.118Z,5
2016-09-02T04:51:00.405Z,5
2016-09-02T04:51:34.694Z,5
2016-09-02T04:52:08.985Z,5
2016-09-02T04:52:43.273Z,5
2016-09-02T04:53:17.566Z,5
2016-09-02T04:53:51.866Z,5
2016-09-02T04:54:26.168Z,5
2016-09-02T04:55:00.473Z,5
2016-09-02T04:55:34.799Z,5
2016-09-02T04:56:09.082Z,5
2016-09-02T04:56:43.367Z,5
2016-09-02T04:57:17.657Z,5
2016-09-02T04:57:51.954Z,5
2016-09-02T04:58:26.246Z,5
2016-09-02T04:59:00.551Z,10
2016-09-02T04:59:34.866Z,10
2016-09-02T05:00:09.153Z,10
2016-09-02T05:00:43.461Z,10
2016-09-02T05:01:17.792Z,10
2016-09-02T05:01:52.077Z,10
2016-09-02T05:02:26.460Z,10
2016-09-02T05:03:00.782Z,10
2016-09-02T05:03:35.083Z,10
2016-09-02T05:04:09.388Z,10
2016-09-02T05:04:43.703Z,10
2016-09-02T05:05:18.339Z,10
2016-09-02T05:05:52.619Z,10
2016-09-02T05:06:26.924Z,10
2016-09-02T05:07:01.221Z,10
2016-09-02T05:07:35.529Z,10
2016-09-02T05:08:09.836Z,10
2016-09-02T05:08:44.124Z,10
2016-09-02T05:09:18.442Z,10
2016-09-02T05:09:52.735Z,10
2016-09-02T05:10:27.028Z,10
2016-09-02T05:11:01.354Z,10
2016-09-02T05:11:35.643Z,10
2016-09-02T05:12:09.947Z,15
2016-09-02T05:12:44.243Z,15
2016-09-02T05:13:19.948Z,15
2016-09-02T05:13:54.392Z,15
2016-09-02T05:14:28.674Z,15
2016-09-02T05:15:02.982Z,15
2016-09-02T05:15:37.272Z,15
2016-09-02T05:16:11.555Z,15
2016-09-02T05:16:45.855Z,15
2016-09-02T05:17:20.155Z,15
2016-09-02T05:17:54.451Z,20
2016-09-02T05:18:28.747Z,20
2016-09-02T05:19:03.025Z,20
2016-09-02T05:19:37.345Z,20
2016-09-02T05:20:11.694Z,20
2016-09-02T05:20:45.997Z,20
2016-09-02T05:21:20.292Z,20
2016-09-02T05:21:54.594Z,20
2016-09-02T05:22:28.885Z,20
2016-09-02T05:23:03.175Z,20
2016-09-02T05:23:38.430Z,20
2016-09-02T05:24:12.727Z,20
2016-09-02T05:24:47.022Z,25
2016-09-02T05:25:21.329Z,25
2016-09-02T05:25:55.629Z,25
2016-09-02T05:26:29.955Z,25
2016-09-02T05:27:05.021Z,25
2016-09-02T05:27:41.013Z,25
2016-09-02T05:28:15.395Z,25
2016-09-02T05:28:50.570Z,25
2016-09-02T05:29:24.854Z,25
2016-09-02T05:29:59.346Z,25
2016-09-02T05:30:33.785Z,30
2016-09-02T05:31:08.066Z,30
2016-09-02T05:31:42.362Z,30
2016-09-02T05:32:16.655Z,30
2016-09-02T05:32:50.955Z,30
2016-09-02T05:33:25.256Z,30
2016-09-02T05:33:59.548Z,35
2016-09-02T05:34:42.365Z,35
2016-09-02T05:35:18.971Z,35
2016-09-02T05:35:53.966Z,35
2016-09-02T05:36:29.026Z,40
2016-09-02T05:37:03.365Z,40
2016-09-02T05:37:38.730Z,40
2016-09-02T05:38:13.032Z,40
2016-09-02T05:38:47.334Z,40
2016-09-02T05:39:22.683Z,40
2016-09-02T05:39:57.274Z,40
2016-09-02T05:40:31.578Z,45
2016-09-02T05:41:05.877Z,45
2016-09-02T05:41:40.167Z,45
2016-09-02T05:42:14.469Z,45
2016-09-02T05:42:48.772Z,45
2016-09-02T05:43:23.062Z,45
2016-09-02T05:43:57.332Z,45
2016-09-02T05:44:31.628Z,40
2016-09-02T05:45:06.068Z,40
2016-09-02T05:45:40.374Z,40
2016-09-02T05:46:14.979Z,40
2016-09-02T05:46:49.282Z,40
2016-09-02T05:47:23.584Z,40
2016-09-02T05:47:58.535Z,40
2016-09-02T05:48:33.874Z,40
2016-09-02T05:49:09.357Z,40
2016-09-02T05:49:44.176Z,40
2016-09-02T05:50:21.519Z,40
2016-09-02T05:50:56.666Z,40
2016-09-02T05:51:33.207Z,40
2016-09-02T05:52:09.019Z,40
2016-09-02T05:52:44.584Z,40
2016-09-02T05:53:20.358Z,45
2016-09-02T05:53:55.648Z,45
2016-09-02T05:54:31.239Z,50
2016-09-02T05:55:06.728Z,50
2016-09-02T05:55:41.868Z,50
2016-09-02T05:56:17.293Z,45
2016-09-02T05:56:53.661Z,45
2016-09-02T05:57:28.714Z,55
2016-09-02T05:58:04.531Z,60
2016-09-02T05:58:39.698Z,65
2016-09-02T05:59:17.520Z,75
2016-09-02T05:59:54.176Z,80
2016-09-02T06:00:29.938Z,75
2016-09-02T06:01:05.330Z,75
2016-09-02T06:01:40.850Z,75
2016-09-02T06:02:15.464Z,70
2016-09-02T06:02:50.004Z,65
2016-09-02T06:03:24.542Z,55
2016-09-02T06:03:59.720Z,55
2016-09-02T06:04:38.030Z,55
2016-09-02T06:05:14.863Z,65
2016-09-02T06:05:49.342Z,75
2016-09-02T06:06:23.632Z,80
2016-09-02T06:06:57.993Z,80
2016-09-02T06:07:33.202Z,75
2016-09-02T06:08:09.721Z,70
2016-09-02T06:08:45.394Z,75
2016-09-02T06:09:19.816Z,65
2016-09-02T06:09:57.543Z,50
2016-09-02T06:10:31.863Z,45
2016-09-02T06:11:06.355Z,45
2016-09-02T06:11:40.794Z,55
2016-09-02T06:12:15.099Z,60
2016-09-02T06:12:49.397Z,70
2016-09-02T06:13:23.709Z,70
2016-09-02T06:13:58.005Z,65
2016-09-02T06:14:32.329Z,65
2016-09-02T06:15:09.855Z,70
2016-09-02T06:15:52.062Z,80
2016-09-02T06:16:32.051Z,70
2016-09-02T06:17:15.047Z,70
2016-09-02T06:17:57.557Z,60
2016-09-02T06:18:34.618Z,70
2016-09-02T06:19:15.030Z,70
2016-09-02T06:19:53.080Z,75
2016-09-02T06:20:33.068Z,80
2016-09-02T06:21:12.533Z,75
2016-09-02T06:21:50.539Z,90
2016-09-02T06:22:31.620Z,90
2016-09-02T06:23:06.553Z,90
2016-09-02T06:23:44.549Z,85
2016-09-02T06:24:25.059Z,90
2016-09-02T06:25:03.446Z,95
2016-09-02T06:25:42.549Z,95
2016-09-02T06:26:20.583Z,95
2016-09-02T06:26:59.548Z,95
2016-09-02T06:27:37.041Z,95
2016-09-02T06:28:13.482Z,95
2016-09-02T06:28:52.315Z,95
2016-09-02T06:29:27.393Z,95
2016-09-02T06:30:05.577Z,95
2016-09-02T06:30:44.633Z,90
2016-09-02T06:31:21.954Z,85
2016-09-02T06:32:02.056Z,80
2016-09-02T06:32:40.037Z,85
2016-09-02T06:33:18.045Z,95
2016-09-02T06:33:56.056Z,80
2016-09-02T06:34:33.388Z,80
2016-09-02T06:35:09.596Z,75
2016-09-02T06:35:50.080Z,95
2016-09-02T06:36:27.553Z,105
2016-09-02T06:37:06.556Z,110
2016-09-02T06:37:45.655Z,110
2016-09-02T06:38:25.058Z,110
2016-09-02T06:39:05.642Z,110
2016-09-02T06:39:44.551Z,110
2016-09-02T06:40:30.604Z,115
2016-09-02T06:41:19.044Z,115
2016-09-02T06:41:56.011Z,115
2016-09-02T06:42:33.056Z,115
2016-09-02T06:43:12.539Z,115
2016-09-02T06:43:49.617Z,115
2016-09-02T06:44:26.644Z,115
2016-09-02T06:45:00.982Z,115
2016-09-02T06:45:36.074Z,115
2016-09-02T06:46:10.640Z,115
2016-09-02T06:46:47.712Z,115
2016-09-02T06:47:23.582Z,120
2016-09-02T06:48:01.558Z,120
2016-09-02T06:48:40.551Z,120
2016-09-02T06:49:16.572Z,120
2016-09-02T06:49:50.876Z,125
2016-09-02T06:50:26.465Z,125
2016-09-02T06:51:02.189Z,125
2016-09-02T06:51:36.754Z,125
2016-09-02T06:52:11.214Z,130
2016-09-02T06:52:45.968Z,125
2016-09-02T06:53:21.738Z,125
2016-09-02T06:53:58.790Z,125
2016-09-02T06:54:34.647Z,125
2016-09-02T06:55:16.558Z,125
2016-09-02T06:55:51.773Z,125
2016-09-02T06:56:27.080Z,125
2016-09-02T06:57:03.425Z,125
2016-09-02T06:57:40.556Z,125
2016-09-02T06:58:17.675Z,125
2016-09-02T06:58:55.833Z,125
2016-09-02T06:59:31.949Z,120
2016-09-02T07:00:06.341Z,120
2016-09-02T07:00:41.026Z,120
2016-09-02T07:01:19.058Z,115
2016-09-02T07:01:55.555Z,110
2016-09-02T07:02:32.072Z,110
2016-09-02T07:03:11.555Z,100
2016-09-02T07:03:47.442Z,105
2016-09-02T07:04:26.063Z,100
2016-09-02T07:05:03.954Z,95
2016-09-02T07:05:41.096Z,95
2016-09-02T07:06:17.829Z,90
2016-09-02T07:06:52.144Z,100
2016-09-02T07:07:27.875Z,100
2016-09-02T07:08:06.565Z,105
2016-09-02T07:08:42.822Z,105
2016-09-02T07:09:23.554Z,105
2016-09-02T07:09:58.515Z,105
2016-09-02T07:10:33.191Z,105
2016-09-02T07:11:08.830Z,105
2016-09-02T07:11:44.123Z,105
2016-09-02T07:12:23.063Z,100
2016-09-02T07:12:59.072Z,95
2016-09-02T07:13:35.069Z,90
2016-09-02T07:14:12.576Z,95
2016-09-02T07:14:52.575Z,100
2016-09-02T07:15:29.168Z,100
2016-09-02T07:16:07.653Z,95
2016-09-02T07:18:08.594Z,110
2016-09-02T07:18:49.570Z,120
2016-09-02T07:19:30.954Z,125
2016-09-02T07:20:20.059Z,130
2016-09-02T07:21:01.590Z,130
2016-09-02T07:21:39.392Z,130
2016-09-02T07:22:21.576Z,135
2016-09-02T07:23:02.081Z,135
2016-09-02T07:23:48.106Z,135
2016-09-02T07:24:29.509Z,135
2016-09-02T07:25:05.569Z,135
2016-09-02T07:25:46.086Z,135
2016-09-02T07:26:21.587Z,135
2016-09-02T07:26:57.807Z,135
2016-09-02T07:27:32.264Z,135
2016-09-02T07:28:06.552Z,135
2016-09-02T07:28:40.842Z,130
2016-09-02T07:29:15.152Z,130
2016-09-02T07:29:49.457Z,130
2016-09-02T07:30:23.766Z,130
2016-09-02T07:30:58.070Z,125
2016-09-02T07:31:32.365Z,125
2016-09-02T07:32:06.687Z,125
2016-09-02T07:32:40.982Z,120
2016-09-02T07:33:15.274Z,125
2016-09-02T07:33:49.580Z,120
2016-09-02T07:34:23.887Z,115
2016-09-02T07:34:58.162Z,110
2016-09-02T07:35:33.721Z,110
2016-09-02T07:36:08.006Z,110
2016-09-02T07:36:42.311Z,105
2016-09-02T07:37:16.611Z,105
2016-09-02T07:37:50.916Z,105
2016-09-02T07:38:25.219Z,105
2016-09-02T07:39:01.748Z,105
2016-09-02T07:39:36.044Z,105
2016-09-02T07:40:10.347Z,105
2016-09-02T07:40:44.640Z,110
2016-09-02T07:41:18.993Z,110
2016-09-02T07:41:53.975Z,110
2016-09-02T07:42:28.278Z,110
2016-09-02T07:43:02.575Z,115
2016-09-02T07:43:40.080Z,115
2016-09-02T07:44:15.718Z,115
2016-09-02T07:44:52.060Z,115
2016-09-02T07:45:27.590Z,120
2016-09-02T07:46:02.631Z,120
2016-09-02T07:46:38.792Z,120
2016-09-02T07:47:15.534Z,120
2016-09-02T07:47:51.834Z,120
2016-09-02T07:48:27.319Z,120
2016-09-02T07:49:04.911Z,115
2016-09-02T07:49:41.198Z,115
2016-09-02T07:50:17.093Z,115
2016-09-02T07:50:53.156Z,115
2016-09-02T07:51:29.578Z,115
2016-09-02T07:52:06.171Z,115
2016-09-02T07:52:41.996Z,115
2016-09-02T07:53:17.567Z,115
2016-09-02T07:53:53.175Z,120
2016-09-02T07:54:28.540Z,120
2016-09-02T07:55:05.531Z,120
2016-09-02T07:55:43.096Z,125
2016-09-02T07:56:18.821Z,125
2016-09-02T07:56:54.332Z,125
2016-09-02T07:57:29.869Z,125
2016-09-02T07:58:05.994Z,130
2016-09-02T07:58:41.602Z,135
2016-09-02T07:59:17.175Z,130
2016-09-02T07:59:54.620Z,130
2016-09-02T08:00:30.334Z,135
2016-09-02T08:01:07.340Z,135
2016-09-02T08:01:42.897Z,135
2016-09-02T08:02:18.295Z,135
2016-09-02T08:02:54.309Z,140
2016-09-02T08:03:33.677Z,135
2016-09-02T08:04:13.605Z,135
2016-09-02T08:04:53.707Z,135
2016-09-02T08:05:31.122Z,135
2016-09-02T08:06:06.646Z,135
2016-09-02T08:06:48.093Z,135
2016-09-02T08:07:23.505Z,135
2016-09-02T08:08:01.130Z,135
2016-09-02T08:08:39.963Z,130
2016-09-02T08:09:21.604Z,130
2016-09-02T08:10:01.598Z,125
2016-09-02T08:10:41.095Z,125
2016-09-02T08:11:22.592Z,120
2016-09-02T08:11:59.594Z,120
2016-09-02T08:12:37.189Z,120
2016-09-02T08:13:12.390Z,120
2016-09-02T08:13:48.608Z,120
2016-09-02T08:14:24.011Z,120
2016-09-02T08:15:03.104Z,120
2016-09-02T08:15:41.451Z,125
2016-09-02T08:16:18.695Z,125
2016-09-02T08:16:54.652Z,120
2016-09-02T08:17:30.912Z,120
2016-09-02T08:18:07.237Z,125
2016-09-02T08:18:47.095Z,125
2016-09-02T08:19:24.225Z,130
2016-09-02T08:20:10.601Z,140
2016-09-02T08:20:52.094Z,140
2016-09-02T08:21:31.601Z,140
2016-09-02T08:22:15.112Z,135
2016-09-02T08:22:55.121Z,140
2016-09-02T08:23:33.243Z,145
2016-09-02T08:24:10.599Z,145
2016-09-02T08:24:48.845Z,145
2016-09-02T08:25:27.954Z,150
2016-09-02T08:26:05.800Z,150
2016-09-02T08:26:45.147Z,155
2016-09-02T08:27:39.268Z,155
2016-09-02T08:28:20.115Z,155
2016-09-02T08:29:02.599Z,155
2016-09-02T08:29:47.165Z,150
2016-09-02T08:30:26.671Z,150